Flight Track Log - Related Links

Times and Time Zones

All times are in EDT time to prevent confusion due to time zone crossing. See the ACA831 flight status page for this flight to view local times or setup timezone preferences in your user account.

Time Position Orientation Groundspeed Altitude Reporting Facility
EDT Latitude Longitude Course Direction KTS MPH feet Rate Location/Type
Thu 04:19:20 PM 45.4333 -73.7500 254° West 160 184 2,500  Level Montreal Center
Thu 04:20:20 PM 45.3833 -73.8000 215° Southwest 230 265 5,300 2,150 Climbing Montreal Center
Thu 04:21:20 PM 45.3500 -73.8667 235° Southwest 250 288 6,800 850 Climbing Montreal Center
Thu 04:22:00 PM 45.4167 -74.3963 270° West  Level FlightAware Approximate
Thu 04:22:20 PM 45.3500 -73.9833 270° West 260 299 7,000  Level Montreal Center
Thu 04:23:00 PM 45.3833 -74.5556 270° West  Level FlightAware Approximate
Thu 04:23:20 PM 45.3833 -74.0667 300° West 260 299 10,200  Level Montreal Center
Thu 04:24:00 PM 45.3637 -74.7148 254° West  Level FlightAware Approximate
Thu 04:25:20 PM 45.4167 -74.3000 282° West 330 380 16,000  Level Montreal Center
Thu 04:26:20 PM 45.4000 -74.4333 260° West 330 380 19,500 3,550 Climbing Montreal Center
Thu 04:27:20 PM 45.3833 -74.5833 261° West 350 403 23,100 3,200 Climbing Montreal Center
Thu 04:28:20 PM 45.3500 -74.7000 248° West 360 414 25,900 2,700 Climbing Montreal Center
Thu 04:29:20 PM 45.3333 -74.8667 262° West 380 437 28,500 2,700 Climbing Montreal Center
Thu 04:30:20 PM 45.3000 -74.9833 248° West 390 449 31,300 2,400 Climbing Montreal Center
Thu 04:31:20 PM 45.2833 -75.1667 263° West 380 437 33,300 1,350 Climbing Montreal Center
Thu 04:32:20 PM 45.2500 -75.3000 250° West 380 437 34,000 350 Climbing Montreal Center
Thu 04:33:20 PM 45.2167 -75.4500 253° West 370 426 34,000  Level Montreal Center
Thu 04:34:20 PM 45.2000 -75.5833 260° West 380 437 34,000  Level Montreal Center
Thu 04:35:21 PM 45.1667 -75.7333 253° West 380 437 34,000  Level Montreal Center
Thu 04:36:20 PM 45.1500 -75.8667 260° West 370 426 34,000  Level Montreal Center
Thu 04:37:20 PM 45.1167 -76.0167 253° West 370 426 34,000  Level Montreal Center
Thu 04:38:20 PM 45.1000 -76.1500 260° West 370 426 34,000  Level Montreal Center
Thu 04:39:20 PM 45.0500 -76.3000 245° Southwest 370 426 34,000  Level Montreal Center
Thu 04:40:20 PM 45.0167 -76.4167 248° West 380 437 34,000  Level Montreal Center
Thu 04:41:20 PM 44.9500 -76.5667 238° Southwest 380 437 34,000  Level Montreal Center
Thu 04:42:20 PM 44.9000 -76.6833 239° Southwest 390 449 34,000  Level Montreal Center
Thu 04:43:20 PM 44.8500 -76.8167 242° Southwest 390 449 34,000  Level Montreal Center
Thu 04:44:20 PM 44.8000 -76.9667 245° Southwest 390 449 34,000  Level Montreal Center
Thu 04:45:20 PM 44.7500 -77.1000 242° Southwest 390 449 34,000 -100 Level Montreal Center
Thu 04:46:20 PM 44.7000 -77.2167 239° Southwest 390 449 33,800 -750 Descending Montreal Center
Thu 04:47:20 PM 44.6500 -77.3500 242° Southwest 390 449 32,500 -1,350 Descending Montreal Center
Thu 04:48:20 PM 44.5833 -77.5000 238° Southwest 390 449 31,100 -1,250 Descending Montreal Center
Thu 04:49:20 PM 44.5333 -77.6167 239° Southwest 380 437 30,000 -1,150 Descending Montreal Center
Thu 04:50:20 PM 44.4667 -77.7500 235° Southwest 380 437 28,800 -1,350 Descending Montreal Center
Thu 04:51:20 PM 44.4333 -77.8667 248° West 370 426 27,300 -1,800 Descending Montreal Center
Thu 04:52:20 PM 44.3667 -78.0000 235° Southwest 360 414 25,200 -2,050 Descending Montreal Center
Thu 04:53:20 PM 44.3333 -78.1167 248° West 360 414 23,200 -2,050 Descending Montreal Center
Thu 04:54:20 PM 44.2833 -78.2333 239° Southwest 360 414 21,100 -2,200 Descending Montreal Center
Thu 04:55:20 PM 44.2333 -78.3500 239° Southwest 360 414 18,800 -2,150 Descending Montreal Center
Thu 04:56:20 PM 44.1667 -78.4667 231° Southwest 350 403 16,800 -2,350 Descending Montreal Center
Thu 04:57:20 PM 44.1167 -78.6000 242° Southwest 370 426 14,100 -2,050 Descending Montreal Center
Thu 04:58:20 PM 44.0833 -78.7167 248° West 350 403 12,700 -1,650 Descending Montreal Center
Thu 04:59:20 PM 44.0333 -78.8333 239° Southwest 330 380 10,800 -1,350 Descending Montreal Center
Thu 05:00:20 PM 43.9833 -78.9000 224° Southwest 320 368 10,000 -1,261 Descending Montreal Center
Thu 05:01:38 PM 43.9000 -78.9833 216° Southwest 280 322 7,900 -1,478 Descending Toronto Center
Thu 05:02:38 PM 43.8667 -79.0833 245° Southwest 250 288 6,600 -950 Descending Toronto Center
Thu 05:03:38 PM 43.8500 -79.1667 255° West 250 288 6,000 -650 Descending Toronto Center
Thu 05:04:38 PM 43.8500 -79.2667 270° West 260 299 5,300 -500 Descending Toronto Center
Thu 05:05:38 PM 43.8167 -79.3333 235° Southwest 220 253 5,000 -600 Descending Toronto Center
Thu 05:06:38 PM 43.7833 -79.4000 235° Southwest 210 242 4,100 -950 Descending Toronto Center
Thu 05:07:38 PM 43.7500 -79.4500 227° Southwest 180 207 3,100 -1,000 Descending Toronto Center

Login

Don't have an account? Register now (free) for customized features, flight alerts, and more!